Time;durP1;ratioP1;P1;durP2;ratioP2;P2;SDS_P1;SDS_P2;PMS_P1;PMS_P2;Temp;Humidity;BMP_temperature;BMP_pressure;BME280_temperature;BME280_humidity;BME280_pressure;Samples;Min_cycle;Max_cycle;Signal;HPM_P1;HPM_P2
2022/09/06 00:00:14;;;;;;;2.60;2.02;;;;;;;9.22;69.94;100539.39;1706730;84;21078;-67
2022/09/06 00:02:41;;;;;;;2.50;2.30;;;;;;;9.21;70.04;100543.66;1649968;83;21912;-69
2022/09/06 00:05:09;;;;;;;2.25;2.00;;;;;;;9.18;69.98;100544.39;1704428;82;36368;-69
2022/09/06 00:07:36;;;;;;;4.50;2.47;;;;;;;9.17;69.99;100544.60;1678455;84;21090;-67
2022/09/06 00:10:03;;;;;;;5.65;2.42;;;;;;;9.15;70.03;100550.20;1708718;83;21512;-70
2022/09/06 00:12:30;;;;;;;9.45;4.05;;;;;;;9.13;70.08;100553.62;1710560;83;21022;-71
2022/09/06 00:14:57;;;;;;;15.72;7.25;;;;;;;9.11;70.04;100548.98;1703407;82;21983;-71
2022/09/06 00:17:25;;;;;;;9.95;5.15;;;;;;;9.10;70.18;100546.02;1703609;83;21076;-71
2022/09/06 00:19:51;;;;;;;14.70;6.17;;;;;;;9.06;70.30;100550.70;1694688;83;21535;-72
2022/09/06 00:22:19;;;;;;;13.38;5.10;;;;;;;9.04;70.39;100549.56;1712251;82;21032;-70
2022/09/06 00:24:45;;;;;;;13.88;6.20;;;;;;;9.05;70.40;100541.83;1688699;83;21084;-71
2022/09/06 00:27:13;;;;;;;12.23;4.25;;;;;;;9.08;70.33;100552.11;1713037;83;21289;-70
2022/09/06 00:29:40;;;;;;;14.73;4.95;;;;;;;9.08;70.46;100540.55;1711910;83;21054;-71
2022/09/06 00:32:07;;;;;;;11.53;5.17;;;;;;;9.06;70.68;100539.97;1735445;81;21057;-70
2022/09/06 00:34:37;;;;;;;8.90;4.30;;;;;;;9.02;70.65;100544.10;1736874;82;20932;-71
2022/09/06 00:37:03;;;;;;;14.53;5.35;;;;;;;9.01;70.56;100537.94;1746467;81;21067;-70
2022/09/06 00:39:30;;;;;;;11.10;4.30;;;;;;;9.02;70.50;100542.24;1730187;80;21300;-73
2022/09/06 00:41:57;;;;;;;8.75;4.70;;;;;;;9.01;70.53;100543.83;1717640;82;21305;-70
2022/09/06 00:44:24;;;;;;;5.05;3.27;;;;;;;9.00;70.64;100543.52;1729471;81;21042;-70
2022/09/06 00:46:51;;;;;;;2.98;2.67;;;;;;;8.98;70.58;100548.27;1719149;82;21547;-70
2022/09/06 00:49:23;;;;;;;4.30;2.30;;;;;;;8.94;70.77;100545.20;1725340;83;21069;-71
2022/09/06 00:51:57;;;;;;;4.67;2.33;;;;;;;8.91;71.09;100546.17;1742761;82;21141;-73
2022/09/06 00:54:24;;;;;;;3.20;2.05;;;;;;;8.87;71.29;100547.13;1750855;81;20997;-70
2022/09/06 00:56:51;;;;;;;2.58;2.12;;;;;;;8.85;71.32;100549.20;1731513;81;21052;-72
2022/09/06 00:59:18;;;;;;;4.83;2.85;;;;;;;8.82;71.63;100540.25;1755185;81;21076;-78
2022/09/06 01:01:45;;;;;;;3.87;3.15;;;;;;;8.77;72.01;100546.79;1729353;81;21076;-73
2022/09/06 01:04:11;;;;;;;2.60;2.40;;;;;;;8.71;72.57;100539.60;1736312;81;21388;-70
2022/09/06 01:07:29;;;;;;;2.33;1.85;;;;;;;8.70;72.43;100543.31;1725512;83;21059;-69
2022/09/06 01:10:34;;;;;;;3.90;1.90;;;;;;;8.71;72.34;100536.41;1725592;83;21127;-70
2022/09/06 01:13:28;;;;;;;3.55;2.22;;;;;;;8.69;72.41;100543.83;1715997;81;21050;-71
2022/09/06 01:16:01;;;;;;;3.65;1.92;;;;;;;8.65;72.63;100546.65;1683352;83;21099;-71
2022/09/06 01:18:55;;;;;;;1.55;1.45;;;;;;;8.61;72.92;100550.80;1683673;84;22300;-69
2022/09/06 01:21:42;;;;;;;6.12;2.20;;;;;;;8.52;73.38;100549.42;1655539;86;21692;-71
2022/09/06 01:24:42;;;;;;;4.50;1.87;;;;;;;8.46;73.50;100550.27;1702323;83;21022;-70
2022/09/06 01:27:44;;;;;;;7.03;2.75;;;;;;;8.41;73.81;100552.77;1735424;81;21005;-69
2022/09/06 01:30:12;;;;;;;4.25;1.70;;;;;;;8.36;74.12;100550.42;1733079;82;21563;-71
2022/09/06 01:33:10;;;;;;;3.17;2.30;;;;;;;8.30;74.24;100559.63;1713591;82;21989;-70
2022/09/06 01:35:47;;;;;;;3.60;1.95;;;;;;;8.30;74.22;100552.92;1722917;82;21027;-70
2022/09/06 01:38:14;;;;;;;3.17;1.92;;;;;;;8.27;74.31;100552.51;1753258;81;21057;-70
2022/09/06 01:40:42;;;;;;;3.70;2.17;;;;;;;8.22;74.52;100559.84;1752607;81;21104;-71
2022/09/06 01:43:11;;;;;;;1.92;1.70;;;;;;;8.16;74.82;100563.88;1722731;81;21542;-70
2022/09/06 01:46:22;;;;;;;2.55;1.80;;;;;;;8.11;74.90;100557.00;1717051;82;21232;-69
2022/09/06 01:49:36;;;;;;;2.12;1.90;;;;;;;8.11;74.84;100558.34;1722698;83;20939;-70
2022/09/06 01:52:19;;;;;;;2.02;1.92;;;;;;;8.09;75.03;100558.57;1725992;81;21013;-69
2022/09/06 01:55:30;;;;;;;3.12;2.30;;;;;;;8.10;75.07;100564.75;1726926;82;21098;-72
2022/09/06 01:58:17;;;;;;;1.90;1.80;;;;;;;8.09;75.16;100560.42;1673082;83;21047;-69
2022/09/06 02:00:56;;;;;;;4.03;1.85;;;;;;;8.05;75.34;100560.55;1711024;82;21150;-67
2022/09/06 02:03:50;;;;;;;3.33;3.02;;;;;;;7.98;75.68;100564.58;1698305;84;21540;-71
2022/09/06 02:06:22;;;;;;;3.37;2.15;;;;;;;7.94;75.75;100561.20;1700044;83;21070;-70
2022/09/06 02:08:54;;;;;;;3.67;2.42;;;;;;;7.91;75.75;100559.77;1720471;83;21576;-69
2022/09/06 02:11:24;;;;;;;3.95;2.02;;;;;;;7.92;75.87;100557.38;1667291;84;21057;-70
2022/09/06 02:13:55;;;;;;;3.05;2.00;;;;;;;7.95;75.75;100562.34;1726456;81;22131;-70
2022/09/06 02:16:25;;;;;;;3.10;1.87;;;;;;;7.95;75.76;100566.35;1735061;82;21002;-71
2022/09/06 02:19:03;;;;;;;3.22;1.85;;;;;;;7.95;75.61;100573.56;1701449;83;21563;-70
2022/09/06 02:21:33;;;;;;;3.00;2.10;;;;;;;7.96;75.51;100571.20;1752576;81;20981;-69
2022/09/06 02:24:04;;;;;;;3.90;2.17;;;;;;;7.93;75.50;100574.28;1686922;83;21562;-70
2022/09/06 02:26:33;;;;;;;2.77;2.55;;;;;;;7.89;75.53;100575.22;1704442;82;21158;-70
2022/09/06 02:29:01;;;;;;;2.10;1.90;;;;;;;7.86;75.54;100574.31;1706684;83;21046;-68
2022/09/06 02:31:47;;;;;;;2.92;2.08;;;;;;;7.80;75.78;100573.30;1725787;82;21031;-71
2022/09/06 02:34:16;;;;;;;7.45;2.17;;;;;;;7.76;76.16;100570.73;1726320;81;21178;-69
2022/09/06 02:36:43;;;;;;;5.87;2.42;;;;;;;7.76;76.00;100572.59;1726125;81;21579;-70
2022/09/06 02:39:10;;;;;;;4.40;2.10;;;;;;;7.78;75.99;100571.33;1687903;83;21356;-69
2022/09/06 02:41:39;;;;;;;2.98;2.20;;;;;;;7.80;75.96;100572.47;1717305;82;21520;-68
2022/09/06 02:44:06;;;;;;;3.85;2.08;;;;;;;7.79;75.84;100572.98;1738871;82;21020;-69
2022/09/06 02:46:32;;;;;;;2.60;2.17;;;;;;;7.76;75.88;100582.78;1735837;82;21496;-69
2022/09/06 02:48:59;;;;;;;2.10;1.90;;;;;;;7.74;75.97;100579.99;1737871;82;21050;-69
2022/09/06 02:51:25;;;;;;;2.40;2.20;;;;;;;7.70;76.03;100589.48;1739862;82;21281;-70
2022/09/06 02:53:52;;;;;;;2.90;2.27;;;;;;;7.67;76.12;100581.88;1716983;82;21517;-69
2022/09/06 02:56:19;;;;;;;3.92;2.27;;;;;;;7.69;76.14;100577.12;1717022;82;21086;-70
2022/09/06 02:58:46;;;;;;;2.65;2.40;;;;;;;7.71;76.17;100575.07;1738242;82;21114;-69
2022/09/06 03:01:13;;;;;;;3.50;2.42;;;;;;;7.72;76.11;100576.17;1736775;82;21015;-71
2022/09/06 03:03:39;;;;;;;4.47;1.90;;;;;;;7.73;76.14;100577.00;1727659;81;22329;-71
2022/09/06 03:06:06;;;;;;;2.95;2.70;;;;;;;7.73;76.11;100575.16;1711232;82;21017;-71
2022/09/06 03:08:35;;;;;;;2.98;2.77;;;;;;;7.73;76.03;100574.33;1713707;82;20998;-71
2022/09/06 03:11:02;;;;;;;4.00;3.25;;;;;;;7.73;76.03;100572.47;1710902;83;21107;-71
2022/09/06 03:13:29;;;;;;;4.25;2.30;;;;;;;7.75;75.93;100581.64;1716703;82;21014;-69
2022/09/06 03:15:58;;;;;;;3.80;2.67;;;;;;;7.73;75.95;100581.84;1731488;81;21270;-69
2022/09/06 03:18:28;;;;;;;4.62;2.58;;;;;;;7.76;75.90;100582.78;1718735;81;21157;-69
2022/09/06 03:20:55;;;;;;;5.00;1.90;;;;;;;7.80;75.84;100584.01;1741452;82;21110;-71
2022/09/06 03:23:24;;;;;;;2.55;1.90;;;;;;;7.82;75.72;100584.60;1755953;81;20988;-71
2022/09/06 03:25:51;;;;;;;5.05;4.08;;;;;;;7.86;75.63;100579.67;1732696;81;21079;-69
2022/09/06 03:28:18;;;;;;;2.55;2.17;;;;;;;7.88;75.50;100585.63;1741268;82;21124;-68
2022/09/06 03:30:46;;;;;;;2.17;2.02;;;;;;;7.87;75.53;100583.97;1738360;82;22304;-70
2022/09/06 03:33:13;;;;;;;10.75;2.35;;;;;;;7.87;75.48;100588.81;1730979;81;20961;-70
2022/09/06 03:35:52;;;;;;;8.73;3.35;;;;;;;7.85;75.48;100593.58;1696048;83;21053;-70
2022/09/06 03:38:19;;;;;;;2.40;2.02;;;;;;;7.85;75.55;100594.09;1726818;81;20996;-68
2022/09/06 03:40:47;;;;;;;4.75;2.17;;;;;;;7.89;75.49;100604.17;1734886;82;21133;-69
2022/09/06 03:43:15;;;;;;;3.15;1.95;;;;;;;7.94;75.41;100606.73;1734809;82;20995;-68
2022/09/06 03:45:48;;;;;;;2.50;1.70;;;;;;;7.98;75.17;100603.94;1734876;82;21585;-68
2022/09/06 03:48:15;;;;;;;3.17;2.30;;;;;;;8.00;74.93;100608.58;1725739;81;21098;-69
2022/09/06 03:50:47;;;;;;;2.45;2.25;;;;;;;8.02;74.75;100603.81;1734822;82;20979;-70
2022/09/06 03:53:14;;;;;;;2.87;2.35;;;;;;;8.05;74.54;100606.92;1721762;81;22210;-69
2022/09/06 03:55:47;;;;;;;2.35;2.15;;;;;;;8.06;74.40;100605.03;1727827;81;21067;-70
2022/09/06 03:58:15;;;;;;;2.92;2.60;;;;;;;8.05;74.27;100602.90;1710502;82;21015;-69
2022/09/06 04:00:42;;;;;;;2.22;1.90;;;;;;;8.05;74.16;100606.92;1713691;82;21071;-70
2022/09/06 04:03:08;;;;;;;4.20;2.42;;;;;;;8.04;74.08;100614.64;1711370;82;21035;-69
2022/09/06 04:05:36;;;;;;;4.35;2.10;;;;;;;8.05;74.04;100616.81;1729815;81;21092;-70
2022/09/06 04:08:04;;;;;;;2.70;2.50;;;;;;;8.03;74.16;100619.69;1697109;81;21045;-70
2022/09/06 04:10:33;;;;;;;2.52;2.20;;;;;;;8.04;74.26;100626.70;1700274;83;21045;-69
2022/09/06 04:13:00;;;;;;;3.08;2.27;;;;;;;8.03;74.28;100637.10;1753659;81;21547;-70
2022/09/06 04:15:27;;;;;;;2.20;1.92;;;;;;;8.01;74.30;100636.47;1753927;81;21025;-70
2022/09/06 04:17:56;;;;;;;2.25;1.87;;;;;;;8.01;74.35;100632.45;1749002;80;21008;-73
2022/09/06 04:20:23;;;;;;;2.70;1.70;;;;;;;8.02;74.37;100627.41;1693409;83;21065;-70
2022/09/06 04:22:50;;;;;;;3.20;1.72;;;;;;;8.06;74.17;100630.48;1715081;82;21189;-71
2022/09/06 04:25:17;;;;;;;1.80;1.60;;;;;;;8.11;73.82;100625.31;1723736;83;21073;-70
2022/09/06 04:27:44;;;;;;;1.98;1.77;;;;;;;8.18;73.72;100627.48;1750822;80;21529;-69
2022/09/06 04:30:11;;;;;;;2.72;2.20;;;;;;;8.24;73.75;100635.50;1721107;81;21530;-68
2022/09/06 04:32:38;;;;;;;3.87;2.80;;;;;;;8.31;74.17;100632.30;1673316;83;20930;-70
2022/09/06 04:35:07;;;;;;;5.22;3.02;;;;;;;8.39;75.67;100630.44;1708271;84;21010;-73
2022/09/06 04:37:34;;;;;;;4.65;2.85;;;;;;;8.42;76.12;100623.30;1708570;84;20990;-71
2022/09/06 04:40:02;;;;;;;5.70;4.05;;;;;;;8.44;76.36;100630.63;1707737;84;21074;-69
2022/09/06 04:42:30;;;;;;;4.12;3.37;;;;;;;8.44;76.71;100634.64;1660311;84;21266;-68
2022/09/06 04:44:58;;;;;;;4.85;3.15;;;;;;;8.44;77.05;100631.96;1681663;84;20931;-68
2022/09/06 04:47:24;;;;;;;4.55;4.15;;;;;;;8.38;77.88;100630.95;1713528;82;21332;-68
2022/09/06 04:49:52;;;;;;;9.83;4.78;;;;;;;8.39;78.08;100631.77;1729436;81;21040;-69
2022/09/06 04:52:19;;;;;;;7.60;4.30;;;;;;;8.44;78.45;100628.73;1726271;82;21137;-68
2022/09/06 04:54:45;;;;;;;6.45;4.90;;;;;;;8.51;78.68;100624.69;1724082;83;21227;-74
2022/09/06 04:57:12;;;;;;;6.28;4.40;;;;;;;8.57;78.77;100622.51;1724022;83;21037;-72
2022/09/06 04:59:39;;;;;;;7.53;4.62;;;;;;;8.66;79.00;100634.63;1735455;81;21032;-69
2022/09/06 05:02:05;;;;;;;9.35;4.75;;;;;;;8.70;79.15;100631.81;1724363;82;21576;-68
2022/09/06 05:04:32;;;;;;;5.58;4.67;;;;;;;8.72;79.20;100648.02;1734367;82;21118;-69
2022/09/06 05:07:05;;;;;;;5.92;4.55;;;;;;;8.77;79.31;100646.55;1692497;84;21207;-73
2022/09/06 05:09:32;;;;;;;5.83;4.75;;;;;;;8.80;79.54;100642.08;1736830;81;21028;-70
2022/09/06 05:11:59;;;;;;;11.18;4.60;;;;;;;8.86;79.58;100638.03;1687490;82;20929;-69
2022/09/06 05:14:27;;;;;;;6.67;4.97;;;;;;;8.94;79.66;100640.45;1727623;82;21106;-70
2022/09/06 05:16:53;;;;;;;7.25;5.80;;;;;;;9.05;79.82;100638.43;1732184;81;21000;-67
2022/09/06 05:19:20;;;;;;;7.67;4.78;;;;;;;9.13;79.98;100635.47;1743296;81;21226;-70
2022/09/06 05:21:47;;;;;;;9.43;5.40;;;;;;;9.21;80.14;100646.45;1705548;82;20955;-69
2022/09/06 05:24:14;;;;;;;6.05;4.03;;;;;;;9.24;80.10;100635.30;1713264;82;20935;-71
2022/09/06 05:26:43;;;;;;;7.35;5.22;;;;;;;9.31;80.24;100636.58;1731449;82;22238;-70
2022/09/06 05:29:09;;;;;;;7.30;4.85;;;;;;;9.36;80.35;100632.20;1741919;81;21125;-70
2022/09/06 05:31:38;;;;;;;8.30;5.15;;;;;;;9.45;80.42;100635.42;1707150;82;21148;-70
2022/09/06 05:34:09;;;;;;;4.80;3.98;;;;;;;9.54;80.36;100634.14;1698101;84;21128;-70
2022/09/06 05:36:37;;;;;;;6.90;4.17;;;;;;;9.65;80.21;100633.40;1696722;84;21033;-69
2022/09/06 05:39:04;;;;;;;7.00;4.22;;;;;;;9.75;79.90;100630.20;1711945;83;21041;-69
2022/09/06 05:41:32;;;;;;;6.03;4.47;;;;;;;9.83;79.50;100624.57;1739425;81;21072;-70
2022/09/06 05:43:59;;;;;;;4.92;3.90;;;;;;;9.89;79.19;100629.86;1735743;81;21126;-68
2022/09/06 05:46:25;;;;;;;5.42;3.70;;;;;;;9.92;78.99;100626.75;1718259;82;21030;-67
2022/09/06 05:48:59;;;;;;;5.58;3.17;;;;;;;9.97;78.68;100630.11;1708348;84;21030;-68
2022/09/06 05:51:25;;;;;;;8.48;4.70;;;;;;;10.01;78.36;100632.64;1713022;83;26912;-70
2022/09/06 05:53:52;;;;;;;4.78;4.00;;;;;;;10.06;78.19;100636.31;1755149;81;21131;-68
2022/09/06 05:56:18;;;;;;;5.67;3.85;;;;;;;10.12;77.86;100635.91;1755029;81;21084;-68
2022/09/06 05:58:45;;;;;;;3.90;3.15;;;;;;;10.20;77.73;100632.98;1710854;83;21039;-69
2022/09/06 06:01:21;;;;;;;5.15;3.25;;;;;;;10.30;77.41;100630.59;1752304;81;21143;-69
2022/09/06 06:04:03;;;;;;;7.25;4.10;;;;;;;10.39;77.12;100630.58;1724069;82;21070;-67
2022/09/06 06:06:32;;;;;;;5.60;3.87;;;;;;;10.48;76.68;100629.22;1737825;81;21115;-68
2022/09/06 06:08:59;;;;;;;4.42;2.90;;;;;;;10.55;76.20;100637.19;1729426;82;21902;-68
2022/09/06 06:11:27;;;;;;;7.47;3.83;;;;;;;10.61;75.46;100637.64;1714762;82;21515;-69
2022/09/06 06:13:54;;;;;;;4.15;3.05;;;;;;;10.66;75.21;100632.41;1719661;82;20987;-69
2022/09/06 06:16:21;;;;;;;7.78;5.58;;;;;;;10.72;74.69;100644.95;1724309;83;21081;-68
2022/09/06 06:18:50;;;;;;;8.20;4.03;;;;;;;10.77;74.20;100641.58;1729884;82;21078;-69
2022/09/06 06:21:24;;;;;;;4.78;2.92;;;;;;;10.82;73.78;100641.72;1731301;81;21261;-68
2022/09/06 06:23:59;;;;;;;3.15;2.30;;;;;;;10.86;73.46;100646.41;1715072;82;21076;-71
2022/09/06 06:26:27;;;;;;;17.55;9.93;;;;;;;10.94;73.13;100650.13;1741841;81;20983;-69
2022/09/06 06:28:56;;;;;;;4.08;3.67;;;;;;;11.06;72.72;100643.45;1732096;81;21141;-70
2022/09/06 06:31:22;;;;;;;4.40;3.62;;;;;;;11.17;72.22;100644.53;1734947;81;21172;-67
2022/09/06 06:33:50;;;;;;;3.58;2.47;;;;;;;11.27;71.48;100643.45;1754904;81;21296;-71
2022/09/06 06:36:22;;;;;;;2.60;2.40;;;;;;;11.39;71.30;100641.59;1755084;81;21048;-68
2022/09/06 06:38:51;;;;;;;3.08;2.20;;;;;;;11.48;70.92;100643.41;1753560;81;21518;-78
2022/09/06 06:41:18;;;;;;;7.55;2.10;;;;;;;11.56;70.02;100643.09;1744513;81;20996;-69
2022/09/06 06:43:46;;;;;;;2.37;2.17;;;;;;;11.59;69.21;100643.44;1716263;82;21002;-68
2022/09/06 06:46:15;;;;;;;4.60;2.25;;;;;;;11.57;67.83;100644.18;1725470;81;21768;-70
2022/09/06 06:48:44;;;;;;;2.62;2.10;;;;;;;11.56;68.33;100650.62;1722025;82;21016;-68
2022/09/06 06:51:14;;;;;;;3.80;2.72;;;;;;;11.59;68.48;100647.48;1726250;81;21084;-74
2022/09/06 06:53:42;;;;;;;2.65;2.45;;;;;;;11.65;68.73;100652.47;1713119;83;21602;-70
2022/09/06 06:56:24;;;;;;;2.87;2.27;;;;;;;11.72;68.76;100655.36;1719098;83;21529;-69
2022/09/06 06:58:53;;;;;;;5.42;2.70;;;;;;;11.77;67.93;100651.44;1712587;83;21303;-70
2022/09/06 07:01:21;;;;;;;5.28;3.33;;;;;;;11.80;67.33;100662.27;1709531;83;21069;-70
2022/09/06 07:03:50;;;;;;;3.67;2.90;;;;;;;11.79;67.29;100655.25;1711490;83;21512;-69
2022/09/06 07:06:18;;;;;;;5.55;3.22;;;;;;;11.80;67.17;100660.39;1711885;83;21069;-69
2022/09/06 07:08:45;;;;;;;3.90;3.08;;;;;;;11.79;67.02;100649.87;1709990;83;21098;-70
2022/09/06 07:11:14;;;;;;;5.53;4.00;;;;;;;11.77;66.94;100654.66;1710265;83;21315;-68
2022/09/06 07:13:40;;;;;;;5.37;3.33;;;;;;;11.79;67.11;100654.73;1713064;83;21026;-68
2022/09/06 07:16:15;;;;;;;3.80;2.77;;;;;;;11.84;67.32;100659.42;1723457;83;21009;-67
2022/09/06 07:18:44;;;;;;;5.97;3.33;;;;;;;11.86;66.46;100662.69;1742615;82;21019;-69
2022/09/06 07:21:14;;;;;;;4.30;3.90;;;;;;;11.87;66.62;100656.24;1702991;83;21624;-71
2022/09/06 07:23:43;;;;;;;3.65;3.10;;;;;;;11.86;66.76;100659.98;1714421;82;21203;-68
2022/09/06 07:26:16;;;;;;;7.85;4.10;;;;;;;11.92;66.76;100662.28;1708634;84;21534;-67
2022/09/06 07:28:43;;;;;;;6.08;3.98;;;;;;;11.99;66.75;100648.95;1717858;83;20916;-67
2022/09/06 07:31:10;;;;;;;8.23;4.17;;;;;;;12.09;66.77;100655.11;1746252;81;20972;-69
2022/09/06 07:33:38;;;;;;;5.10;3.87;;;;;;;12.18;66.49;100653.72;1725322;83;21541;-68
2022/09/06 07:36:07;;;;;;;4.87;4.20;;;;;;;12.24;66.03;100654.92;1727682;81;21321;-68
2022/09/06 07:38:34;;;;;;;5.05;4.08;;;;;;;12.32;65.41;100647.53;1722295;81;21017;-70
2022/09/06 07:41:05;;;;;;;7.22;3.83;;;;;;;12.38;65.33;100654.66;1735535;82;21527;-67
2022/09/06 07:43:32;;;;;;;5.53;4.05;;;;;;;12.41;63.72;100656.89;1735676;82;21328;-68
2022/09/06 07:46:03;;;;;;;5.47;4.12;;;;;;;12.44;63.68;100661.80;1751531;81;22264;-68
2022/09/06 07:48:34;;;;;;;9.40;6.10;;;;;;;12.48;62.88;100650.81;1742559;82;21047;-71
2022/09/06 07:51:15;;;;;;;7.58;4.87;;;;;;;12.49;61.64;100661.91;1733405;81;20991;-68
2022/09/06 07:53:48;;;;;;;8.78;5.92;;;;;;;12.46;60.75;100653.78;1713180;83;21578;-67
2022/09/06 07:56:14;;;;;;;6.60;4.35;;;;;;;12.43;60.36;100650.19;1752515;81;21006;-69
2022/09/06 07:58:46;;;;;;;5.45;4.92;;;;;;;12.49;60.82;100648.42;1703232;83;21607;-67
2022/09/06 08:01:37;;;;;;;8.88;5.65;;;;;;;12.59;60.78;100645.92;1744540;81;21280;-69
2022/09/06 08:04:09;;;;;;;7.72;6.47;;;;;;;12.68;60.51;100643.13;1701351;83;20984;-70
2022/09/06 08:06:43;;;;;;;13.13;7.20;;;;;;;12.79;59.90;100651.73;1742891;82;28725;-68
2022/09/06 08:09:10;;;;;;;10.25;6.62;;;;;;;12.88;58.95;100633.26;1752740;81;21021;-76
2022/09/06 08:11:38;;;;;;;11.88;6.85;;;;;;;12.97;58.10;100626.41;1738972;81;21561;-69
2022/09/06 08:14:07;;;;;;;7.35;5.80;;;;;;;13.08;57.08;100635.81;1734487;81;21041;-69
2022/09/06 08:16:36;;;;;;;10.38;5.85;;;;;;;13.19;55.04;100638.72;1715189;82;21113;-69
2022/09/06 08:19:07;;;;;;;7.83;5.15;;;;;;;13.24;53.99;100631.50;1727677;81;21118;-70
2022/09/06 08:21:34;;;;;;;8.40;5.22;;;;;;;13.30;53.26;100629.18;1713459;83;21054;-72
2022/09/06 08:24:05;;;;;;;6.33;4.42;;;;;;;13.40;53.03;100625.30;1713108;82;21595;-68
2022/09/06 08:26:34;;;;;;;4.72;4.22;;;;;;;13.49;51.78;100633.28;1721832;82;21186;-69
2022/09/06 08:29:04;;;;;;;6.42;4.65;;;;;;;13.45;51.35;100629.97;1733209;82;20995;-70
2022/09/06 08:31:31;;;;;;;5.87;4.87;;;;;;;13.42;51.47;100619.66;1734647;81;20957;-69
2022/09/06 08:33:59;;;;;;;4.92;3.50;;;;;;;13.39;50.16;100630.41;1714372;82;21054;-69
2022/09/06 08:36:28;;;;;;;7.83;5.15;;;;;;;13.38;50.02;100620.66;1725836;81;20990;-70
2022/09/06 08:38:56;;;;;;;5.95;5.33;;;;;;;13.41;50.63;100620.72;1747772;81;21132;-72
2022/09/06 08:41:43;;;;;;;8.35;5.33;;;;;;;13.44;50.99;100614.28;1714612;82;21000;-68
2022/09/06 08:44:17;;;;;;;9.30;6.47;;;;;;;13.49;50.72;100608.95;1718848;82;21571;-70
2022/09/06 08:47:08;;;;;;;;;;;;;;;13.48;50.50;100611.37;1750845;81;21049;-68
2022/09/06 08:49:39;;;;;;;8.03;5.67;;;;;;;13.48;49.48;100606.49;1730116;82;20151;-72
2022/09/06 08:52:32;;;;;;;6.25;5.15;;;;;;;13.44;49.57;100613.45;1735079;80;21086;-69
2022/09/06 08:55:22;;;;;;;6.17;5.55;;;;;;;13.48;49.56;100605.96;1720464;81;28092;-69
2022/09/06 08:58:04;;;;;;;6.97;5.05;;;;;;;13.54;49.37;100602.81;1729070;81;21147;-69
2022/09/06 09:00:33;;;;;;;10.50;6.08;;;;;;;13.59;49.03;100633.16;1709998;82;21087;-69
2022/09/06 09:03:15;;;;;;;10.75;7.03;;;;;;;13.58;48.76;100625.57;1708787;83;21072;-72
2022/09/06 09:05:44;;;;;;;13.13;8.05;;;;;;;13.53;48.81;100612.80;1721551;82;21281;-71
2022/09/06 09:08:28;;;;;;;12.47;9.15;;;;;;;13.52;48.99;100606.31;1729417;81;21006;-69
2022/09/06 09:11:03;;;;;;;10.00;8.30;;;;;;;13.48;49.23;100614.07;1716744;82;21063;-69
2022/09/06 09:13:52;;;;;;;11.55;8.75;;;;;;;13.45;49.34;100604.29;1708279;83;21569;-68
2022/09/06 09:16:18;;;;;;;15.50;9.38;;;;;;;13.45;49.29;100597.53;1737468;81;21161;-73
2022/09/06 09:18:52;;;;;;;11.88;9.35;;;;;;;13.39;49.15;100606.62;1715501;83;21064;-73
2022/09/06 09:21:22;;;;;;;14.13;10.55;;;;;;;13.41;49.31;100597.22;1733555;82;21500;-75
2022/09/06 09:23:59;;;;;;;15.83;11.00;;;;;;;13.44;49.36;100599.42;1734279;81;21760;-80
2022/09/06 09:26:30;;;;;;;19.02;13.55;;;;;;;13.50;48.90;100598.97;1715049;81;21094;-74
2022/09/06 09:29:10;;;;;;;21.57;12.78;;;;;;;13.53;48.75;100599.28;1713222;81;21029;-78
2022/09/06 09:31:49;;;;;;;18.92;14.05;;;;;;;13.54;48.85;100593.34;1753706;81;21779;-78
2022/09/06 09:34:35;;;;;;;16.82;12.30;;;;;;;13.57;49.02;100589.35;1731584;81;21090;-74
2022/09/06 09:37:23;;;;;;;19.90;14.00;;;;;;;13.60;49.01;100592.90;1730876;81;21081;-74
2022/09/06 09:39:52;;;;;;;21.90;15.60;;;;;;;13.65;48.86;100601.91;1741077;81;21012;-69
2022/09/06 09:42:30;;;;;;;23.22;15.83;;;;;;;13.67;48.61;100603.81;1728927;82;21054;-71
2022/09/06 09:44:56;;;;;;;25.92;18.12;;;;;;;13.68;48.72;100600.58;1736410;81;21099;-69
2022/09/06 09:47:27;;;;;;;24.98;17.15;;;;;;;13.68;48.99;100597.34;1742162;82;21019;-70
2022/09/06 09:49:54;;;;;;;23.05;16.67;;;;;;;13.70;49.25;100604.69;1751266;80;21533;-80
2022/09/06 09:52:28;;;;;;;24.50;17.67;;;;;;;13.74;49.02;100603.13;1734591;82;21111;-71
2022/09/06 09:55:02;;;;;;;;;;;;;;;13.76;49.15;100599.65;1714440;82;21125;-68
2022/09/06 09:57:30;;;;;;;28.73;18.98;;;;;;;13.80;49.00;100591.84;1709971;81;21461;-73
2022/09/06 10:00:01;;;;;;;23.60;17.85;;;;;;;13.82;48.75;100595.93;1736938;82;20968;-74
2022/09/06 10:02:37;;;;;;;27.90;19.95;;;;;;;13.84;48.74;100594.34;1737438;82;21010;-79
2022/09/06 10:05:20;;;;;;;26.45;17.45;;;;;;;13.74;48.53;100596.36;1708452;84;20916;-68
2022/09/06 10:07:55;;;;;;;26.20;19.17;;;;;;;13.66;48.78;100591.39;1714204;82;21070;-75
2022/09/06 10:10:28;;;;;;;33.58;22.30;;;;;;;13.64;48.95;100589.98;1734253;82;21049;-70
2022/09/06 10:13:28;;;;;;;33.67;20.92;;;;;;;13.68;49.21;100591.94;1735081;82;20956;-71
2022/09/06 10:15:57;;;;;;;29.32;22.05;;;;;;;13.75;49.27;100591.25;1730980;82;21123;-77
2022/09/06 10:18:37;;;;;;;29.90;22.40;;;;;;;13.82;49.00;100586.47;1719837;82;21058;-73
2022/09/06 10:21:12;;;;;;;31.75;22.20;;;;;;;13.84;48.69;100588.40;1720514;82;20935;-76
2022/09/06 10:24:13;;;;;;;29.00;21.30;;;;;;;13.90;48.38;100588.77;1732239;82;21232;-89
2022/09/06 10:26:52;;;;;;;30.72;21.12;;;;;;;13.97;47.98;100582.63;1705516;84;21010;-78
2022/09/06 10:29:46;;;;;;;25.20;20.27;;;;;;;14.05;48.09;100579.22;1721893;82;21060;-79
2022/09/06 10:32:48;;;;;;;23.50;16.97;;;;;;;14.12;47.56;100577.13;1733366;82;20888;-87
2022/09/06 10:35:23;;;;;;;26.35;17.70;;;;;;;14.16;46.90;100575.02;1702562;81;21035;-87
2022/09/06 10:38:04;;;;;;;23.47;15.58;;;;;;;14.18;46.94;100572.06;1734140;82;22187;-84
2022/09/06 10:40:42;;;;;;;35.38;19.30;;;;;;;14.21;46.65;100572.37;1714816;82;21046;-84
2022/09/06 10:43:14;;;;;;;34.25;21.48;;;;;;;14.19;46.67;100574.53;1734183;82;21035;-87
2022/09/06 10:46:01;;;;;;;35.23;23.62;;;;;;;14.06;47.04;100581.64;1734161;81;21041;-75
2022/09/06 10:48:45;;;;;;;48.30;28.42;;;;;;;13.98;47.94;100576.68;1750861;81;21114;-82
2022/09/06 10:51:26;;;;;;;45.75;27.75;;;;;;;13.95;48.49;100575.84;1748174;81;21345;-78
2022/09/06 10:54:12;;;;;;;38.17;26.95;;;;;;;13.96;49.00;100579.63;1730218;81;21026;-92
2022/09/06 10:56:51;;;;;;;32.53;20.68;;;;;;;13.97;49.17;100579.09;1708126;83;21557;-70
2022/09/06 10:59:40;;;;;;;22.90;18.02;;;;;;;14.03;47.97;100586.75;1727215;82;21043;-77
2022/09/06 11:02:37;;;;;;;26.12;17.73;;;;;;;14.09;47.54;100579.81;1692588;83;21125;-73
2022/09/06 11:05:20;;;;;;;22.42;16.02;;;;;;;14.17;47.43;100582.07;1715348;82;21101;-79
2022/09/06 11:08:00;;;;;;;18.70;14.33;;;;;;;14.20;46.86;100591.55;1737967;81;21693;-78
2022/09/06 11:10:33;;;;;;;19.70;15.40;;;;;;;14.22;46.97;100585.38;1720974;82;20907;-71
2022/09/06 11:13:20;;;;;;;23.22;15.50;;;;;;;14.25;46.92;100587.03;1739612;81;21076;-72
2022/09/06 11:16:17;;;;;;;17.85;12.95;;;;;;;14.28;47.41;100580.31;1727553;82;21055;-73
2022/09/06 11:19:10;;;;;;;15.70;11.63;;;;;;;14.26;47.70;100577.84;1738531;81;21298;-74
2022/09/06 11:22:17;;;;;;;25.95;11.95;;;;;;;14.25;47.05;100576.20;1721149;81;21049;-77
2022/09/06 11:25:08;;;;;;;12.68;10.35;;;;;;;14.22;47.41;100571.84;1683294;82;21094;-72
2022/09/06 11:27:40;;;;;;;13.13;9.73;;;;;;;14.23;47.50;100577.55;1765160;80;21031;-76
2022/09/06 11:30:13;;;;;;;13.10;8.70;;;;;;;14.23;47.76;100573.48;1749382;81;21565;-72
2022/09/06 11:32:47;;;;;;;14.75;9.38;;;;;;;14.26;47.80;100579.20;1713529;82;21117;-69
2022/09/06 11:35:27;;;;;;;12.10;8.63;;;;;;;14.24;47.90;100573.24;1729940;81;21018;-72
2022/09/06 11:38:03;;;;;;;14.28;8.95;;;;;;;14.18;47.75;100574.77;1753807;81;21037;-70
2022/09/06 11:40:40;;;;;;;11.40;8.93;;;;;;;14.17;48.15;100582.60;1742224;82;21125;-70
2022/09/06 11:43:13;;;;;;;12.95;9.28;;;;;;;14.18;48.40;100576.13;1708393;83;21030;-71
2022/09/06 11:45:49;;;;;;;11.00;7.25;;;;;;;14.19;48.08;100580.48;1704857;81;21399;-71
2022/09/06 11:48:33;;;;;;;9.23;6.40;;;;;;;14.17;46.74;100584.77;1703927;83;21575;-74
2022/09/06 11:51:11;;;;;;;8.23;5.62;;;;;;;14.14;46.25;100589.34;1715636;82;21062;-70
2022/09/06 11:53:59;;;;;;;8.28;5.33;;;;;;;14.07;46.59;100587.34;1702308;82;21516;-71